createdAt,value
2023-02-24T00:02:00.865Z,18.27
2023-02-24T00:04:30.566Z,21.85
2023-02-24T00:06:57.814Z,24.25
2023-02-24T00:09:26.630Z,22.88
2023-02-24T00:11:59.153Z,20.77
2023-02-24T00:14:28.982Z,21.55
2023-02-24T00:16:56.891Z,22.98
2023-02-24T00:19:25.306Z,19.73
2023-02-24T00:21:54.303Z,24.17
2023-02-24T00:24:24.361Z,22.08
2023-02-24T00:27:00.160Z,23.25
2023-02-24T00:29:28.981Z,23.05
2023-02-24T00:32:01.041Z,23.38
2023-02-24T00:34:30.341Z,21.35
2023-02-24T00:36:58.259Z,17.85
2023-02-24T00:39:30.687Z,20.23
2023-02-24T00:42:04.377Z,22.42
2023-02-24T00:44:36.411Z,19.73
2023-02-24T00:47:05.011Z,23.33
2023-02-24T00:49:34.001Z,21.08
2023-02-24T00:52:01.215Z,21.17
2023-02-24T00:54:28.399Z,20.48
2023-02-24T00:56:56.414Z,17.67
2023-02-24T00:59:24.142Z,20.77
2023-02-24T01:01:51.934Z,20.75
2023-02-24T01:04:20.111Z,19.20
2023-02-24T01:07:00.078Z,21.67
2023-02-24T01:09:29.746Z,17.85
2023-02-24T01:12:16.713Z,21.65
2023-02-24T01:14:47.808Z,18.33
2023-02-24T01:17:18.287Z,20.23
2023-02-24T01:19:47.312Z,18.08
2023-02-24T01:22:16.262Z,22.17
2023-02-24T01:24:44.838Z,21.17
2023-02-24T01:27:19.738Z,20.85
2023-02-24T01:29:48.119Z,21.17
2023-02-24T01:32:22.114Z,23.75
2023-02-24T01:34:52.188Z,20.58
2023-02-24T01:37:20.216Z,19.50
2023-02-24T01:39:47.983Z,21.25
2023-02-24T01:42:19.658Z,20.20
2023-02-24T01:44:46.821Z,20.90
2023-02-24T01:47:16.125Z,19.15
2023-02-24T01:49:47.251Z,19.88
2023-02-24T01:52:20.301Z,19.25
2023-02-24T01:54:59.502Z,17.42
2023-02-24T01:57:31.189Z,16.67
2023-02-24T02:00:11.157Z,17.85
2023-02-24T02:02:45.764Z,19.83
2023-02-24T02:05:13.888Z,20.08
2023-02-24T02:07:41.940Z,21.65
2023-02-24T02:10:11.458Z,25.70
2023-02-24T02:12:44.339Z,20.08
2023-02-24T02:15:14.490Z,20.45
2023-02-24T02:18:08.417Z,21.13
2023-02-24T02:21:01.404Z,23.80
2023-02-24T02:24:04.418Z,21.42
2023-02-24T02:26:58.069Z,25.02
2023-02-24T02:29:35.178Z,24.35
2023-02-24T02:32:24.151Z,23.35
2023-02-24T02:34:51.917Z,21.45
2023-02-24T02:37:33.293Z,20.50
2023-02-24T02:40:16.925Z,20.58
2023-02-24T02:43:08.095Z,20.88
2023-02-24T02:45:47.669Z,18.08
2023-02-24T02:48:23.713Z,22.88
2023-02-24T02:51:11.169Z,20.48
2023-02-24T02:54:10.234Z,21.40
2023-02-24T02:56:52.784Z,24.70
2023-02-24T02:59:25.083Z,22.92
2023-02-24T03:01:55.598Z,21.48
2023-02-24T03:04:25.239Z,21.38
2023-02-24T03:07:03.278Z,23.33
2023-02-24T03:09:36.158Z,20.23
2023-02-24T03:12:08.538Z,22.55
2023-02-24T03:14:39.567Z,21.98
2023-02-24T03:17:12.648Z,19.20
2023-02-24T03:19:43.813Z,23.20
2023-02-24T03:22:19.157Z,24.10
2023-02-24T03:24:46.413Z,22.35
2023-02-24T03:27:31.113Z,22.85
2023-02-24T03:30:07.186Z,22.05
2023-02-24T03:35:34.326Z,20.90
2023-02-24T03:38:03.273Z,19.88
2023-02-24T03:40:35.796Z,20.02
2023-02-24T03:43:20.552Z,18.58
2023-02-24T03:45:48.557Z,22.13
2023-02-24T03:48:16.324Z,21.00
2023-02-24T03:50:46.539Z,20.98
2023-02-24T03:54:22.353Z,21.73
2023-02-24T03:57:12.753Z,20.13
2023-02-24T03:59:47.154Z,20.45
2023-02-24T04:02:14.531Z,18.35
2023-02-24T04:05:12.579Z,21.58
2023-02-24T04:08:03.352Z,22.92
2023-02-24T04:10:57.420Z,23.63
2023-02-24T04:13:39.305Z,22.38
2023-02-24T04:16:28.038Z,17.83
2023-02-24T04:19:02.847Z,18.45
2023-02-24T04:21:32.336Z,21.85
2023-02-24T04:24:08.587Z,22.05
2023-02-24T04:26:40.439Z,22.70
2023-02-24T04:29:09.598Z,24.45
2023-02-24T04:31:39.072Z,25.20
2023-02-24T04:34:09.528Z,25.23
2023-02-24T04:36:39.388Z,22.75
2023-02-24T04:39:07.681Z,23.52
2023-02-24T04:41:35.846Z,25.67
2023-02-24T04:44:02.682Z,22.83
2023-02-24T04:46:32.596Z,24.58
2023-02-24T04:49:02.227Z,21.75
2023-02-24T04:51:32.445Z,20.88
2023-02-24T04:53:59.722Z,21.27
2023-02-24T04:56:28.988Z,20.13
2023-02-24T04:58:55.928Z,19.00
2023-02-24T05:01:23.239Z,18.92
2023-02-24T05:03:50.785Z,19.17
2023-02-24T05:06:18.163Z,19.98
2023-02-24T05:08:45.660Z,22.30
2023-02-24T05:11:16.713Z,18.50
2023-02-24T05:13:47.286Z,20.48
2023-02-24T05:16:17.761Z,21.65
2023-02-24T05:18:44.873Z,17.63
2023-02-24T05:21:35.459Z,18.65
2023-02-24T05:24:11.544Z,17.42
2023-02-24T05:29:09.424Z,18.25
2023-02-24T05:31:37.424Z,20.52
2023-02-24T05:34:08.549Z,21.38
2023-02-24T05:36:40.255Z,21.17
2023-02-24T05:39:12.043Z,20.33
2023-02-24T05:41:42.199Z,23.85
2023-02-24T05:44:13.998Z,19.40
2023-02-24T05:46:44.631Z,24.77
2023-02-24T05:49:27.386Z,23.48
2023-02-24T05:51:56.971Z,23.33
2023-02-24T05:54:29.264Z,21.75
2023-02-24T05:57:00.219Z,21.10
2023-02-24T05:59:32.600Z,23.73
2023-02-24T06:02:09.276Z,26.20
2023-02-24T06:04:45.688Z,27.33
2023-02-24T06:07:27.059Z,21.70
2023-02-24T06:09:57.230Z,25.40
2023-02-24T06:12:28.052Z,23.77
2023-02-24T06:14:55.579Z,24.58
2023-02-24T06:17:22.998Z,22.27
2023-02-24T06:19:51.675Z,24.20
2023-02-24T06:22:21.224Z,22.60
2023-02-24T06:24:49.508Z,24.65
2023-02-24T06:27:18.951Z,30.42
2023-02-24T06:29:50.154Z,24.30
2023-02-24T06:32:24.053Z,28.92
2023-02-24T06:34:51.829Z,26.05
2023-02-24T06:37:19.075Z,25.17
2023-02-24T06:39:46.389Z,29.48
2023-02-24T06:42:13.939Z,27.45
2023-02-24T06:44:41.952Z,29.33
2023-02-24T06:47:13.126Z,23.92
2023-02-24T06:49:40.606Z,27.58
2023-02-24T06:52:08.701Z,27.88
2023-02-24T06:54:36.258Z,24.08
2023-02-24T06:57:03.814Z,25.83
2023-02-24T06:59:30.844Z,23.65
2023-02-24T07:01:59.488Z,23.45
2023-02-24T07:04:28.900Z,26.33
2023-02-24T07:07:02.883Z,27.60
2023-02-24T07:09:31.206Z,26.25
2023-02-24T07:11:58.823Z,26.92
2023-02-24T07:14:27.795Z,25.80
2023-02-24T07:16:55.504Z,28.58
2023-02-24T07:19:29.195Z,26.25
2023-02-24T07:22:03.088Z,34.85
2023-02-24T07:24:33.489Z,26.50
2023-02-24T07:27:04.401Z,27.50
2023-02-24T07:29:32.736Z,22.95
2023-02-24T07:32:05.980Z,28.83
2023-02-24T07:34:34.150Z,27.25
2023-02-24T07:37:08.004Z,27.52
2023-02-24T07:39:37.546Z,23.90
2023-02-24T07:42:07.589Z,25.50
2023-02-24T07:44:44.669Z,23.70
2023-02-24T07:47:11.962Z,25.42
2023-02-24T07:49:41.107Z,21.42
2023-02-24T07:52:08.582Z,23.35
2023-02-24T07:54:35.934Z,27.95
2023-02-24T07:57:03.222Z,23.58
2023-02-24T07:59:32.524Z,26.50
2023-02-24T08:02:00.608Z,26.23
2023-02-24T08:04:30.291Z,24.98
2023-02-24T08:07:02.421Z,25.95
2023-02-24T08:10:07.089Z,25.65
2023-02-24T08:12:35.259Z,26.25
2023-02-24T08:15:17.208Z,29.67
2023-02-24T08:17:47.438Z,28.00
2023-02-24T08:20:14.807Z,27.45
2023-02-24T08:22:44.409Z,28.88
2023-02-24T08:25:18.506Z,28.92
2023-02-24T08:28:12.519Z,25.23
2023-02-24T08:30:45.356Z,28.95
2023-02-24T08:33:18.976Z,27.25
2023-02-24T08:35:50.914Z,28.13
2023-02-24T08:38:19.920Z,26.98
2023-02-24T08:40:51.853Z,27.02
2023-02-24T08:43:28.870Z,27.02
2023-02-24T08:46:03.836Z,29.80
2023-02-24T08:48:37.954Z,31.17
2023-02-24T08:51:08.918Z,28.13
2023-02-24T08:53:40.312Z,27.25
2023-02-24T08:56:11.355Z,33.80
2023-02-24T08:58:49.909Z,28.58
2023-02-24T09:01:25.547Z,30.58
2023-02-24T09:03:58.128Z,30.65
2023-02-24T09:06:37.390Z,25.38
2023-02-24T09:09:17.493Z,27.45
2023-02-24T09:11:57.235Z,26.33
2023-02-24T09:14:36.488Z,27.52
2023-02-24T09:17:06.630Z,26.05
2023-02-24T09:19:51.528Z,27.73
2023-02-24T09:22:33.141Z,26.17
2023-02-24T09:25:18.543Z,26.42
2023-02-24T09:27:52.170Z,28.05
2023-02-24T09:30:36.492Z,28.00
2023-02-24T09:33:19.111Z,24.42
2023-02-24T09:36:09.813Z,27.30
2023-02-24T09:39:00.598Z,29.60
2023-02-24T09:41:54.039Z,28.23
2023-02-24T09:44:33.189Z,29.92
2023-02-24T09:47:14.087Z,27.38
2023-02-24T09:49:49.658Z,29.52
2023-02-24T09:52:19.005Z,26.63
2023-02-24T09:55:09.094Z,24.27
2023-02-24T09:58:05.670Z,25.98
2023-02-24T10:00:33.727Z,29.25
2023-02-24T10:03:19.784Z,29.15
2023-02-24T10:06:12.270Z,25.85
2023-02-24T10:08:47.931Z,22.70
2023-02-24T10:11:15.413Z,26.10
2023-02-24T10:13:49.485Z,24.38
2023-02-24T10:16:24.076Z,24.52
2023-02-24T10:19:16.375Z,26.38
2023-02-24T10:22:00.623Z,26.48
2023-02-24T10:24:47.261Z,25.42
2023-02-24T10:27:26.300Z,21.00
2023-02-24T10:30:11.315Z,24.30
2023-02-24T10:32:52.184Z,23.30
2023-02-24T10:35:22.226Z,23.85
2023-02-24T10:37:49.882Z,22.33
2023-02-24T10:40:43.858Z,21.60
2023-02-24T10:43:17.883Z,24.17
2023-02-24T10:45:46.305Z,24.02
2023-02-24T10:48:41.420Z,25.95
2023-02-24T10:51:20.221Z,23.67
2023-02-24T10:54:14.165Z,20.10
2023-02-24T10:56:44.795Z,22.30
2023-02-24T10:59:24.576Z,18.73
2023-02-24T11:02:01.149Z,19.13
2023-02-24T11:04:43.802Z,23.65
2023-02-24T11:07:24.591Z,25.15
2023-02-24T11:10:15.153Z,20.98
2023-02-24T11:13:10.069Z,23.33
2023-02-24T11:16:01.329Z,20.92
2023-02-24T11:18:30.257Z,21.73
2023-02-24T11:21:04.758Z,24.42
2023-02-24T11:23:45.200Z,21.85
2023-02-24T11:26:23.981Z,18.85
2023-02-24T11:28:57.649Z,19.95
2023-02-24T11:31:34.896Z,22.40
2023-02-24T11:34:33.998Z,27.55
2023-02-24T11:37:15.755Z,20.52
2023-02-24T11:40:22.914Z,24.95
2023-02-24T11:43:03.245Z,23.73
2023-02-24T11:45:53.477Z,21.25
2023-02-24T11:48:26.508Z,21.08
2023-02-24T11:50:53.725Z,23.05
2023-02-24T11:53:36.785Z,20.90
2023-02-24T11:56:04.195Z,19.40
2023-02-24T11:58:31.387Z,21.20
2023-02-24T12:01:22.391Z,19.35
2023-02-24T12:04:09.935Z,25.77
2023-02-24T12:06:37.217Z,21.10
2023-02-24T12:09:14.133Z,22.40
2023-02-24T12:11:58.885Z,21.17
2023-02-24T12:14:32.477Z,20.67
2023-02-24T12:17:22.284Z,21.67
2023-02-24T12:19:59.060Z,23.92
2023-02-24T12:22:49.269Z,20.73
2023-02-24T12:25:18.717Z,19.63
2023-02-24T12:28:02.306Z,20.40
2023-02-24T12:30:49.152Z,20.30
2023-02-24T12:33:44.479Z,17.65
2023-02-24T12:36:31.037Z,14.10
2023-02-24T12:39:01.881Z,14.82
2023-02-24T12:41:46.560Z,16.88
2023-02-24T12:44:13.845Z,87.10
2023-02-24T12:46:41.229Z,40.40
2023-02-24T12:49:43.939Z,23.20
2023-02-24T12:52:52.570Z,23.05
2023-02-24T12:55:38.044Z,17.35
2023-02-24T12:58:16.716Z,19.08
2023-02-24T13:00:52.568Z,18.92
2023-02-24T13:03:39.663Z,16.30
2023-02-24T13:06:32.391Z,17.33
2023-02-24T13:09:25.551Z,13.75
2023-02-24T13:12:15.821Z,16.48
2023-02-24T13:14:44.349Z,13.02
2023-02-24T13:17:11.879Z,15.75
2023-02-24T13:19:40.178Z,12.63
2023-02-24T13:22:28.946Z,13.93
2023-02-24T13:24:59.674Z,11.85
2023-02-24T13:27:35.251Z,13.98
2023-02-24T13:30:08.250Z,10.45
2023-02-24T13:32:45.093Z,12.48
2023-02-24T13:35:15.033Z,12.02
2023-02-24T13:37:43.937Z,12.20
2023-02-24T13:40:22.287Z,16.27
2023-02-24T13:42:59.691Z,11.38
2023-02-24T13:45:34.843Z,9.50
2023-02-24T13:48:16.895Z,10.15
2023-02-24T13:51:05.667Z,8.45
2023-02-24T13:53:35.382Z,10.52
2023-02-24T13:56:04.974Z,8.65
2023-02-24T13:58:42.296Z,10.07
2023-02-24T14:01:14.464Z,11.20
2023-02-24T14:03:44.082Z,7.63
2023-02-24T14:06:26.334Z,9.95
2023-02-24T14:08:57.157Z,9.00
2023-02-24T14:11:27.016Z,8.75
2023-02-24T14:13:55.854Z,9.48
2023-02-24T14:16:33.568Z,12.88
2023-02-24T14:19:02.999Z,6.05
2023-02-24T14:21:33.011Z,8.13
2023-02-24T14:24:10.723Z,9.95
2023-02-24T14:26:44.256Z,6.30
2023-02-24T14:29:11.630Z,6.70
2023-02-24T14:31:39.144Z,6.63
2023-02-24T14:34:09.162Z,5.68
2023-02-24T14:36:39.453Z,7.38
2023-02-24T14:39:15.939Z,7.97
2023-02-24T14:41:43.518Z,6.63
2023-02-24T14:44:30.281Z,6.72
2023-02-24T14:46:59.459Z,6.95
2023-02-24T14:49:32.806Z,7.63
2023-02-24T14:52:10.064Z,5.43
2023-02-24T14:54:45.784Z,6.53
2023-02-24T14:57:17.271Z,6.82
2023-02-24T14:59:47.029Z,5.65
2023-02-24T15:02:19.634Z,6.03
2023-02-24T15:04:47.739Z,6.88
2023-02-24T15:07:28.506Z,7.45
2023-02-24T15:09:55.923Z,7.88
2023-02-24T15:12:33.748Z,12.75
2023-02-24T15:15:22.057Z,6.90
2023-02-24T15:18:04.409Z,8.30
2023-02-24T15:20:31.852Z,13.57
2023-02-24T15:22:59.287Z,7.95
2023-02-24T15:25:46.293Z,7.43
2023-02-24T15:28:32.483Z,9.63
2023-02-24T15:31:00.202Z,9.15
2023-02-24T15:33:34.203Z,8.57
2023-02-24T15:36:05.149Z,8.35
2023-02-24T15:38:38.385Z,7.25
2023-02-24T15:41:06.784Z,7.15
2023-02-24T15:43:37.142Z,9.57
2023-02-24T15:46:23.189Z,7.07
2023-02-24T15:48:52.719Z,6.68
2023-02-24T15:51:39.774Z,8.00
2023-02-24T15:54:10.956Z,6.85
2023-02-24T15:56:38.248Z,6.88
2023-02-24T15:59:06.117Z,5.00
2023-02-24T16:01:34.097Z,6.45
2023-02-24T16:04:01.608Z,6.40
2023-02-24T16:06:29.219Z,8.25
2023-02-24T16:08:57.758Z,6.45
2023-02-24T16:11:31.698Z,5.50
2023-02-24T16:14:00.562Z,6.82
2023-02-24T16:16:28.043Z,5.40
2023-02-24T16:18:54.924Z,6.15
2023-02-24T16:21:21.836Z,4.22
2023-02-24T16:23:50.215Z,5.50
2023-02-24T16:26:20.474Z,5.03
2023-02-24T16:28:54.692Z,7.80
2023-02-24T16:31:22.869Z,5.88
2023-02-24T16:33:54.880Z,6.45
2023-02-24T16:36:25.295Z,6.93
2023-02-24T16:38:52.539Z,4.57
2023-02-24T16:41:20.389Z,4.30
2023-02-24T16:43:48.180Z,5.88
2023-02-24T16:46:19.018Z,5.70
2023-02-24T16:48:48.904Z,4.03
2023-02-24T16:51:16.096Z,5.20
2023-02-24T16:53:43.527Z,5.03
2023-02-24T16:56:12.024Z,5.47
2023-02-24T16:58:39.337Z,5.53
2023-02-24T17:01:06.340Z,8.27
2023-02-24T17:03:48.757Z,5.82
2023-02-24T17:06:15.729Z,6.80
2023-02-24T17:08:43.906Z,4.78
2023-02-24T17:11:15.800Z,4.63
2023-02-24T17:13:43.672Z,8.88
2023-02-24T17:16:11.637Z,10.23
2023-02-24T17:18:38.957Z,6.25
2023-02-24T17:21:06.267Z,5.43
2023-02-24T17:23:33.106Z,5.15
2023-02-24T17:26:02.248Z,3.90
2023-02-24T17:28:29.754Z,3.83
2023-02-24T17:30:57.263Z,5.30
2023-02-24T17:33:24.486Z,4.47
2023-02-24T17:35:51.744Z,3.58
2023-02-24T17:38:20.576Z,3.92
2023-02-24T17:40:47.978Z,4.13
2023-02-24T17:43:15.218Z,3.15
2023-02-24T17:45:44.971Z,4.50
2023-02-24T17:48:14.273Z,3.75
2023-02-24T17:50:42.357Z,3.92
2023-02-24T17:53:09.392Z,4.53
2023-02-24T17:55:36.758Z,4.60
2023-02-24T17:58:03.957Z,4.03
2023-02-24T18:00:31.365Z,3.67
2023-02-24T18:02:58.270Z,5.88
2023-02-24T18:05:25.709Z,5.38
2023-02-24T18:07:53.542Z,5.07
2023-02-24T18:10:20.521Z,4.13
2023-02-24T18:12:47.791Z,7.43
2023-02-24T18:15:15.012Z,4.22
2023-02-24T18:17:42.224Z,6.30
2023-02-24T18:20:12.098Z,4.80
2023-02-24T18:22:38.933Z,5.00
2023-02-24T18:25:06.389Z,11.02
2023-02-24T18:27:33.730Z,6.60
2023-02-24T18:30:00.965Z,7.68
2023-02-24T18:32:28.372Z,4.95
2023-02-24T18:34:56.290Z,7.00
2023-02-24T18:37:23.768Z,3.65
2023-02-24T18:39:53.266Z,4.13
2023-02-24T18:42:20.670Z,4.93
2023-02-24T18:44:48.146Z,6.22
2023-02-24T18:47:15.011Z,3.67
2023-02-24T18:49:42.249Z,6.53
2023-02-24T18:52:11.890Z,4.68
2023-02-24T18:54:39.272Z,4.32
2023-02-24T18:57:06.176Z,3.47
2023-02-24T18:59:33.311Z,6.15
2023-02-24T19:02:00.414Z,3.88
2023-02-24T19:04:27.474Z,2.55
2023-02-24T19:06:55.051Z,3.97
2023-02-24T19:09:22.633Z,4.10
2023-02-24T19:11:52.141Z,4.70
2023-02-24T19:14:19.527Z,5.43
2023-02-24T19:16:46.728Z,3.38
2023-02-24T19:19:14.896Z,4.75
2023-02-24T19:21:45.338Z,7.38
2023-02-24T19:24:13.855Z,6.68
2023-02-24T19:26:42.835Z,6.05
2023-02-24T19:29:10.993Z,3.65
2023-02-24T19:31:39.301Z,6.80
2023-02-24T19:34:08.689Z,4.60
2023-02-24T19:36:37.089Z,4.57
2023-02-24T19:39:05.408Z,4.78
2023-02-24T19:41:32.884Z,4.07
2023-02-24T19:43:59.839Z,3.40
2023-02-24T19:46:27.381Z,4.57
2023-02-24T19:48:56.348Z,4.28
2023-02-24T19:51:24.645Z,3.90
2023-02-24T19:53:57.171Z,3.55
2023-02-24T19:56:30.082Z,5.30
2023-02-24T19:58:59.394Z,2.72
2023-02-24T20:01:28.288Z,3.63
2023-02-24T20:03:58.189Z,2.80
2023-02-24T20:06:30.422Z,2.75
2023-02-24T20:08:58.665Z,3.88
2023-02-24T20:11:25.981Z,4.60
2023-02-24T20:13:53.469Z,4.80
2023-02-24T20:16:23.866Z,11.27
2023-02-24T20:18:51.447Z,9.90
2023-02-24T20:21:18.355Z,11.25
2023-02-24T20:23:45.984Z,12.88
2023-02-24T20:26:16.660Z,7.60
2023-02-24T20:28:45.367Z,8.35
2023-02-24T20:31:15.402Z,5.05
2023-02-24T20:33:43.657Z,4.93
2023-02-24T20:36:22.320Z,3.70
2023-02-24T20:38:51.539Z,7.05
2023-02-24T20:41:20.741Z,5.72
2023-02-24T20:43:48.423Z,5.28
2023-02-24T20:46:28.747Z,3.05
2023-02-24T20:49:01.893Z,3.97
2023-02-24T20:51:30.210Z,2.90
2023-02-24T20:53:58.675Z,5.90
2023-02-24T20:56:34.073Z,6.82
2023-02-24T20:59:13.072Z,4.15
2023-02-24T21:01:40.468Z,4.65
2023-02-24T21:04:08.922Z,6.40
2023-02-24T21:06:37.027Z,3.45
2023-02-24T21:09:04.442Z,4.20
2023-02-24T21:11:32.053Z,3.33
2023-02-24T21:13:59.566Z,4.60
2023-02-24T21:16:27.119Z,5.65
2023-02-24T21:18:55.839Z,7.25
2023-02-24T21:21:23.101Z,4.13
2023-02-24T21:23:50.807Z,5.57
2023-02-24T21:26:18.304Z,5.95
2023-02-24T21:28:46.269Z,4.22
2023-02-24T21:31:16.371Z,5.90
2023-02-24T21:33:43.700Z,3.70
2023-02-24T21:36:14.630Z,3.08
2023-02-24T21:38:41.885Z,5.63
2023-02-24T21:41:13.461Z,4.47
2023-02-24T21:43:40.582Z,3.33
2023-02-24T21:46:11.395Z,3.80
2023-02-24T21:48:38.872Z,5.28
2023-02-24T21:51:09.525Z,7.13
2023-02-24T21:53:39.358Z,5.85
2023-02-24T21:56:11.013Z,3.90
2023-02-24T21:58:39.520Z,3.85
2023-02-24T22:01:20.796Z,6.18
2023-02-24T22:03:47.847Z,8.88
2023-02-24T22:06:16.976Z,3.05
2023-02-24T22:08:45.592Z,7.97
2023-02-24T22:11:17.505Z,6.60
2023-02-24T22:13:45.792Z,7.85
2023-02-24T22:16:15.928Z,7.85
2023-02-24T22:18:43.256Z,4.72
2023-02-24T22:21:17.172Z,5.18
2023-02-24T22:23:49.671Z,6.13
2023-02-24T22:26:16.975Z,5.35
2023-02-24T22:28:45.391Z,6.35
2023-02-24T22:31:15.153Z,4.30
2023-02-24T22:33:43.910Z,6.43
2023-02-24T22:36:14.184Z,7.45
2023-02-24T22:38:42.954Z,5.75
2023-02-24T22:41:22.300Z,4.63
2023-02-24T22:43:49.583Z,8.75
2023-02-24T22:46:37.272Z,4.25
2023-02-24T22:49:04.901Z,6.57
2023-02-24T22:51:32.135Z,5.78
2023-02-24T22:53:58.976Z,6.40
2023-02-24T22:56:28.916Z,5.13
2023-02-24T22:58:56.542Z,5.45
2023-02-24T23:01:23.764Z,4.97
2023-02-24T23:03:51.219Z,4.88
2023-02-24T23:06:22.176Z,3.50
2023-02-24T23:08:50.786Z,5.75
2023-02-24T23:11:20.664Z,5.68
2023-02-24T23:13:49.472Z,5.43
2023-02-24T23:16:19.979Z,4.10
2023-02-24T23:18:50.607Z,5.70
2023-02-24T23:21:24.967Z,5.45
2023-02-24T23:23:57.656Z,5.38
2023-02-24T23:26:45.629Z,5.30
2023-02-24T23:29:14.677Z,5.70
2023-02-24T23:31:42.343Z,7.22
2023-02-24T23:34:09.866Z,5.20
2023-02-24T23:36:39.605Z,4.28
2023-02-24T23:39:07.845Z,3.75
2023-02-24T23:41:35.764Z,6.82
2023-02-24T23:44:03.684Z,6.35
2023-02-24T23:46:32.905Z,4.32
2023-02-24T23:49:00.446Z,3.30
2023-02-24T23:51:35.806Z,5.38
2023-02-24T23:54:09.327Z,3.78
2023-02-24T23:56:36.567Z,3.72
2023-02-24T23:59:03.846Z,6.65
